Terminal Aerodrome Forecast
Issued by NWS Wilmington, OH

Home | Current Version | Previous Version | Text Only | Print | Product List | Glossary On
Versions: 1 2 3 4 5 6 7 8 9 10 11 12 13 14 15 16 17 18 19 20 21 22 23 24 25 26 27 28 29 30 31 32 33 34 35 36 37 38 39 40 41 42 43 44 45 46 47 48
000
FTUS41 KILN 131433 AAA
TAFCVG
TAF AMD
KCVG 131433Z 1315/1418 16006KT P6SM OVC040
      TEMPO 1317/1319 BKN022
     FM132300 10003KT P6SM -RA BKN018 OVC080
     FM140400 36004KT 2SM -RA BR OVC006
     FM141100 34006KT P6SM OVC005
     FM141500 29007KT P6SM OVC010=

USA.gov is the U.S. government's official web portal to all federal, state and local government web resources and services.